Aérodrome :
LOGIN :

S'inscrire | Disclaimer

   EN    FR    IT 

 










Légende :    VFR   VFR Marginal   IFR   IFR Intensif   IFR Très Intensif
Visi : 
Plafond : 
>= 8 km
>= 3000ft
5 à 8 km
1000 à 3000 ft
1500m à 5 km
500 à 1000 ft
800 à 1500m
200 à 500 ft
< 800m
< 200 ft
Symboles :   Orages  Brouillard  Fortes neiges  Fortes précipitations  Vent > 20 kt
SIGMETs :   Divers  Orages  Givrage  Turbulence  Onde Orograph.  Cendres Volcan.






- Altitude de l'aérodrome : 112 ft
- Code IATA : KIR


EIKY - Kerry Farranfore

DERNIER METAR :
  • 221930Z 22013KT 9999 RA SCT032 08/07 Q1016

METARs EXPIRÉS :
  • 221900Z 23011KT 9999 -RA FEW020 SCT029 08/06 Q1017
  • 221830Z 25009KT 9999 -RA BKN022 BKN027 08/06 Q1017
  • 221800Z 24007KT 9999 -RA BKN022 OVC034 08/05 Q1017
  • 221730Z 25014KT 230V290 9999 OVC031 08/05 Q1018

TAF TAF EIKY
Valide du 22 à 18h jusqu'au 23 à 03h UTC


221700Z 2218/2303 25012KT 9999 FEW014 BKN025
BECMG 2219/2221 21010KT
TEMPO 2220/2223 4000 RA SCT008 BKN012
BECMG 2222/2224 16007KT
TEMPO 2223/2303 2000 RADZ BKN007
BECMG 2300/2302 24020G32KT
BECMG 2302/2303 24027G42KT



MET'MAP, la Météo Aéronautique d'un coup d'oeil ! - Copyright ORBIFLY Décembre 2007 - Disclaimer

ORBIFLY MET'MAP TEAM :

Programmation & Développement : Alexandra Zaïnal
Sur une idée originale de : Baudouin d'Aumeries
Assistance à la programmation : Marc-Olivier Méhu
Soutien technique & logistique : Manuel Goepfert

Contact : metmap@orbifly.com




SOURCES & CREDITS :

   NOAA